createdAt,value
2018-08-23T00:01:37.441Z,100049.00
2018-08-23T00:04:15.031Z,100043.00
2018-08-23T00:06:57.989Z,100043.00
2018-08-23T00:09:35.366Z,100039.00
2018-08-23T00:12:12.368Z,100036.00
2018-08-23T00:14:49.073Z,100039.00
2018-08-23T00:17:27.491Z,100034.00
2018-08-23T00:20:06.456Z,100033.00
2018-08-23T00:22:42.531Z,100036.00
2018-08-23T00:25:19.069Z,100036.00
2018-08-23T00:27:55.545Z,100031.00
2018-08-23T00:30:34.541Z,100038.00
2018-08-23T00:33:10.861Z,100039.00
2018-08-23T00:35:47.321Z,100034.00
2018-08-23T00:38:23.227Z,100036.00
2018-08-23T00:40:59.764Z,100032.00
2018-08-23T00:43:36.704Z,100025.00
2018-08-23T00:46:15.242Z,100031.00
2018-08-23T00:48:52.225Z,100028.00
2018-08-23T00:51:29.444Z,100028.00
2018-08-23T00:54:07.300Z,100020.00
2018-08-23T00:56:44.547Z,100021.00
2018-08-23T00:59:20.946Z,100020.00
2018-08-23T01:02:06.681Z,100022.00
2018-08-23T01:04:47.876Z,100025.00
2018-08-23T01:07:25.553Z,100017.00
2018-08-23T01:10:01.881Z,100018.00
2018-08-23T01:12:48.953Z,100018.00
2018-08-23T01:15:25.319Z,100013.00
2018-08-23T01:18:14.557Z,100013.00
2018-08-23T01:20:53.718Z,100009.00
2018-08-23T01:23:30.757Z,100002.00
2018-08-23T01:26:09.077Z,100001.00
2018-08-23T01:28:46.884Z,99999.00
2018-08-23T01:31:30.304Z,99991.00
2018-08-23T01:34:07.728Z,99988.00
2018-08-23T01:36:43.647Z,99990.00
2018-08-23T01:39:20.219Z,99985.00
2018-08-23T01:41:59.248Z,99987.00
2018-08-23T01:44:40.910Z,99985.00
2018-08-23T01:47:17.517Z,99987.00
2018-08-23T01:49:55.163Z,99980.00
2018-08-23T01:52:31.947Z,99984.00
2018-08-23T01:55:09.304Z,99983.00
2018-08-23T01:57:46.461Z,99978.00
2018-08-23T02:00:25.212Z,99979.00
2018-08-23T02:03:03.356Z,99977.00
2018-08-23T02:05:43.028Z,99981.00
2018-08-23T02:08:20.219Z,99973.00
2018-08-23T02:10:56.574Z,99978.00
2018-08-23T02:13:34.366Z,99975.00
2018-08-23T02:16:14.496Z,99980.00
2018-08-23T02:18:51.955Z,99976.00
2018-08-23T02:21:29.942Z,99972.00
2018-08-23T02:24:06.556Z,99970.00
2018-08-23T02:26:42.548Z,99971.00
2018-08-23T02:29:35.095Z,99967.00
2018-08-23T02:32:11.589Z,99964.00
2018-08-23T02:34:48.957Z,99962.00
2018-08-23T02:37:25.156Z,99971.00
2018-08-23T02:40:02.230Z,99968.00
2018-08-23T02:42:38.155Z,99964.00
2018-08-23T02:45:15.041Z,99961.00
2018-08-23T02:47:51.098Z,99958.00
2018-08-23T02:50:27.664Z,99966.00
2018-08-23T02:53:22.596Z,99959.00
2018-08-23T02:56:05.081Z,99954.00
2018-08-23T02:58:59.761Z,99954.00
2018-08-23T03:01:40.330Z,99953.00
2018-08-23T03:04:21.317Z,99952.00
2018-08-23T03:07:02.498Z,99958.00
2018-08-23T03:09:43.285Z,99955.00
2018-08-23T03:12:21.248Z,99953.00
2018-08-23T03:14:56.840Z,99963.00
2018-08-23T03:17:40.785Z,99958.00
2018-08-23T03:20:18.349Z,99953.00
2018-08-23T03:22:55.310Z,99954.00
2018-08-23T03:25:32.106Z,99949.00
2018-08-23T03:28:08.911Z,99954.00
2018-08-23T03:30:49.550Z,99951.00
2018-08-23T03:33:27.325Z,99954.00
2018-08-23T03:36:03.256Z,99952.00
2018-08-23T03:38:39.244Z,99953.00
2018-08-23T03:41:16.018Z,99951.00
2018-08-23T03:43:53.780Z,99947.00
2018-08-23T03:46:31.515Z,99946.00
2018-08-23T03:49:07.435Z,99950.00
2018-08-23T03:51:43.301Z,99948.00
2018-08-23T03:54:18.904Z,99949.00
2018-08-23T03:57:15.709Z,99947.00
2018-08-23T03:59:53.133Z,99947.00
2018-08-23T04:02:30.195Z,99946.00
2018-08-23T04:05:24.755Z,99945.00
2018-08-23T04:08:01.387Z,99946.00
2018-08-23T04:10:38.321Z,99942.00
2018-08-23T04:13:14.586Z,99951.00
2018-08-23T04:15:50.630Z,99951.00
2018-08-23T04:18:27.159Z,99945.00
2018-08-23T04:21:03.416Z,99944.00
2018-08-23T04:23:39.589Z,99943.00
2018-08-23T04:26:16.654Z,99943.00
2018-08-23T04:28:52.372Z,99943.00
2018-08-23T04:31:28.234Z,99939.00
2018-08-23T04:34:06.561Z,99945.00
2018-08-23T04:36:42.301Z,99934.00
2018-08-23T04:39:18.381Z,99934.00
2018-08-23T04:42:00.959Z,99931.00
2018-08-23T04:44:42.700Z,99939.00
2018-08-23T04:47:20.564Z,99934.00
2018-08-23T04:49:56.908Z,99934.00
2018-08-23T04:52:33.626Z,99932.00
2018-08-23T04:55:10.429Z,99931.00
2018-08-23T04:57:46.744Z,99938.00
2018-08-23T05:00:24.274Z,99927.00
2018-08-23T05:03:00.833Z,99933.00
2018-08-23T05:05:37.376Z,99930.00
2018-08-23T05:08:13.116Z,99930.00
2018-08-23T05:10:49.322Z,99932.00
2018-08-23T05:13:25.756Z,99933.00
2018-08-23T05:16:01.711Z,99935.00
2018-08-23T05:18:37.803Z,99931.00
2018-08-23T05:21:14.367Z,99933.00
2018-08-23T05:23:52.935Z,99930.00
2018-08-23T05:26:29.738Z,99929.00
2018-08-23T05:29:07.705Z,99927.00
2018-08-23T05:31:45.052Z,99927.00
2018-08-23T05:34:21.260Z,99928.00
2018-08-23T05:36:57.475Z,99926.00
2018-08-23T05:39:49.428Z,99924.00
2018-08-23T05:42:49.767Z,99921.00
2018-08-23T05:45:35.543Z,99914.00
2018-08-23T05:48:32.172Z,99921.00
2018-08-23T05:51:11.284Z,99916.00
2018-08-23T05:53:50.795Z,99914.00
2018-08-23T05:56:27.121Z,99913.00
2018-08-23T05:59:08.233Z,99908.00
2018-08-23T06:01:46.790Z,99905.00
2018-08-23T06:04:40.324Z,99902.00
2018-08-23T06:07:18.341Z,99904.00
2018-08-23T06:09:55.851Z,99904.00
2018-08-23T06:12:33.638Z,99910.00
2018-08-23T06:15:09.926Z,99907.00
2018-08-23T06:17:47.161Z,99903.00
2018-08-23T06:20:24.660Z,99904.00
2018-08-23T06:23:01.922Z,99900.00
2018-08-23T06:25:38.235Z,99899.00
2018-08-23T06:28:23.101Z,99893.00
2018-08-23T06:31:01.701Z,99888.00
2018-08-23T06:33:44.179Z,99894.00
2018-08-23T06:36:22.264Z,99892.00
2018-08-23T06:39:00.832Z,99887.00
2018-08-23T06:41:38.329Z,99888.00
2018-08-23T06:44:15.995Z,99892.00
2018-08-23T06:46:53.019Z,99893.00
2018-08-23T06:49:28.950Z,99894.00
2018-08-23T06:52:15.093Z,99886.00
2018-08-23T06:54:51.844Z,99887.00
2018-08-23T06:57:43.517Z,99884.00
2018-08-23T07:00:25.464Z,99878.00
2018-08-23T07:03:04.159Z,99876.00
2018-08-23T07:05:42.340Z,99874.00
2018-08-23T07:08:19.668Z,99875.00
2018-08-23T07:11:12.328Z,99871.00
2018-08-23T07:14:27.657Z,99869.00
2018-08-23T07:17:17.211Z,99866.00
2018-08-23T07:19:54.859Z,99867.00
2018-08-23T07:22:35.075Z,99862.00
2018-08-23T07:25:15.789Z,99859.00
2018-08-23T07:27:52.792Z,99861.00
2018-08-23T07:30:29.835Z,99857.00
2018-08-23T07:33:07.621Z,99855.00
2018-08-23T07:35:46.833Z,99853.00
2018-08-23T07:38:24.605Z,99857.00
2018-08-23T07:41:01.912Z,99857.00
2018-08-23T07:43:39.753Z,99860.00
2018-08-23T07:46:16.777Z,99863.00
2018-08-23T07:48:53.643Z,99862.00
2018-08-23T07:51:31.842Z,99859.00
2018-08-23T07:54:12.916Z,99858.00
2018-08-23T07:56:50.784Z,99855.00
2018-08-23T07:59:29.675Z,99855.00
2018-08-23T08:02:13.095Z,99856.00
2018-08-23T08:04:51.507Z,99854.00
2018-08-23T08:07:31.038Z,99851.00
2018-08-23T08:10:13.798Z,99857.00
2018-08-23T08:12:51.816Z,99861.00
2018-08-23T08:15:30.574Z,99854.00
2018-08-23T08:18:16.745Z,99851.00
2018-08-23T08:21:01.734Z,99849.00
2018-08-23T08:23:39.108Z,99847.00
2018-08-23T08:26:18.216Z,99844.00
2018-08-23T08:28:55.320Z,99846.00
2018-08-23T08:31:32.850Z,99840.00
2018-08-23T08:34:11.101Z,99841.00
2018-08-23T08:36:47.716Z,99848.00
2018-08-23T08:39:24.877Z,99844.00
2018-08-23T08:42:01.549Z,99836.00
2018-08-23T08:44:37.885Z,99840.00
2018-08-23T08:47:16.250Z,99836.00
2018-08-23T08:49:52.823Z,99829.00
2018-08-23T08:52:30.585Z,99828.00
2018-08-23T08:55:11.011Z,99826.00
2018-08-23T08:57:48.344Z,99822.00
2018-08-23T09:00:25.616Z,99816.00
2018-08-23T09:03:02.342Z,99815.00
2018-08-23T09:05:39.369Z,99823.00
2018-08-23T09:08:17.256Z,99812.00
2018-08-23T09:10:53.889Z,99805.00
2018-08-23T09:13:37.201Z,99807.00
2018-08-23T09:16:20.057Z,99797.00
2018-08-23T09:19:01.699Z,99798.00
2018-08-23T09:21:38.002Z,99793.00
2018-08-23T09:24:27.539Z,99791.00
2018-08-23T09:27:04.518Z,99785.00
2018-08-23T09:29:42.255Z,99782.00
2018-08-23T09:32:26.137Z,99781.00
2018-08-23T09:35:05.049Z,99773.00
2018-08-23T09:37:41.826Z,99771.00
2018-08-23T09:40:19.314Z,99767.00
2018-08-23T09:42:56.382Z,99765.00
2018-08-23T09:45:36.385Z,99761.00
2018-08-23T09:48:14.265Z,99759.00
2018-08-23T09:50:52.402Z,99757.00
2018-08-23T09:53:29.268Z,99755.00
2018-08-23T09:56:06.696Z,99754.00
2018-08-23T09:58:43.908Z,99748.00
2018-08-23T10:01:26.953Z,99747.00
2018-08-23T10:04:10.424Z,99746.00
2018-08-23T10:07:00.812Z,99734.00
2018-08-23T10:09:44.088Z,99732.00
2018-08-23T10:12:27.375Z,99727.00
2018-08-23T10:15:12.109Z,99727.00
2018-08-23T10:17:55.632Z,99716.00
2018-08-23T10:20:46.264Z,99712.00
2018-08-23T10:23:25.255Z,99708.00
2018-08-23T10:26:05.740Z,99704.00
2018-08-23T10:28:48.512Z,99706.00
2018-08-23T10:31:25.857Z,99702.00
2018-08-23T10:34:03.496Z,99698.00
2018-08-23T10:36:40.113Z,99692.00
2018-08-23T10:39:16.944Z,99686.00
2018-08-23T10:41:53.265Z,99690.00
2018-08-23T10:44:29.821Z,99679.00
2018-08-23T10:47:07.112Z,99683.00
2018-08-23T10:49:44.514Z,99679.00
2018-08-23T10:52:22.009Z,99674.00
2018-08-23T10:55:00.522Z,99671.00
2018-08-23T10:57:38.733Z,99661.00
2018-08-23T11:00:17.043Z,99668.00
2018-08-23T11:02:54.494Z,99658.00
2018-08-23T11:05:32.399Z,99658.00
2018-08-23T11:08:14.399Z,99660.00
2018-08-23T11:10:58.286Z,99658.00
2018-08-23T11:13:42.391Z,99652.00
2018-08-23T11:16:26.080Z,99655.00
2018-08-23T11:19:08.013Z,99653.00
2018-08-23T11:21:45.346Z,99647.00
2018-08-23T11:24:23.061Z,99641.00
2018-08-23T11:27:01.006Z,99637.00
2018-08-23T11:29:39.474Z,99640.00
2018-08-23T11:32:16.198Z,99641.00
2018-08-23T11:34:52.971Z,99636.00
2018-08-23T11:37:30.212Z,99628.00
2018-08-23T11:40:06.958Z,99623.00
2018-08-23T11:42:44.768Z,99620.00
2018-08-23T11:45:23.610Z,99615.00
2018-08-23T11:48:02.030Z,99622.00
2018-08-23T11:50:39.280Z,99617.00
2018-08-23T11:53:17.194Z,99613.00
2018-08-23T11:55:55.175Z,99607.00
2018-08-23T11:58:32.698Z,99605.00
2018-08-23T12:01:11.696Z,99586.00
2018-08-23T12:03:49.986Z,99605.00
2018-08-23T12:06:26.642Z,99599.00
2018-08-23T12:09:04.830Z,99605.00
2018-08-23T12:11:41.359Z,99600.00
2018-08-23T12:14:19.712Z,99591.00
2018-08-23T12:16:57.409Z,99592.00
2018-08-23T12:19:34.427Z,99581.00
2018-08-23T12:22:10.247Z,99586.00
2018-08-23T12:24:47.770Z,99579.00
2018-08-23T12:27:25.208Z,99576.00
2018-08-23T12:30:05.457Z,99566.00
2018-08-23T12:32:42.893Z,99564.00
2018-08-23T12:35:20.833Z,99552.00
2018-08-23T12:38:04.284Z,99559.00
2018-08-23T12:40:46.794Z,99560.00
2018-08-23T12:43:28.754Z,99564.00
2018-08-23T12:46:07.207Z,99558.00
2018-08-23T12:48:44.187Z,99555.00
2018-08-23T12:51:20.722Z,99552.00
2018-08-23T12:53:58.699Z,99541.00
2018-08-23T12:56:37.284Z,99515.00
2018-08-23T12:59:13.949Z,99536.00
2018-08-23T13:01:51.559Z,99509.00
2018-08-23T13:04:28.916Z,99514.00
2018-08-23T13:07:05.829Z,99502.00
2018-08-23T13:09:43.856Z,99521.00
2018-08-23T13:12:21.401Z,99511.00
2018-08-23T13:14:58.986Z,99494.00
2018-08-23T13:17:37.563Z,99484.00
2018-08-23T13:20:15.770Z,99479.00
2018-08-23T13:22:53.674Z,99479.00
2018-08-23T13:25:31.074Z,99471.00
2018-08-23T13:28:08.948Z,99474.00
2018-08-23T13:30:46.585Z,99483.00
2018-08-23T13:33:24.409Z,99488.00
2018-08-23T13:36:01.386Z,99480.00
2018-08-23T13:38:38.708Z,99456.00
2018-08-23T13:41:15.746Z,99455.00
2018-08-23T13:43:52.888Z,99458.00
2018-08-23T13:46:31.634Z,99455.00
2018-08-23T13:49:10.566Z,99457.00
2018-08-23T13:51:48.059Z,99444.00
2018-08-23T13:54:25.820Z,99442.00
2018-08-23T13:57:02.613Z,99446.00
2018-08-23T13:59:40.061Z,99455.00
2018-08-23T14:02:17.379Z,99452.00
2018-08-23T14:04:54.298Z,99450.00
2018-08-23T14:07:33.563Z,99440.00
2018-08-23T14:10:11.522Z,99439.00
2018-08-23T14:12:49.704Z,99422.00
2018-08-23T14:15:33.316Z,99426.00
2018-08-23T14:18:11.410Z,99409.00
2018-08-23T14:20:48.659Z,99406.00
2018-08-23T14:23:26.646Z,99412.00
2018-08-23T14:26:04.792Z,99403.00
2018-08-23T14:28:41.989Z,99397.00
2018-08-23T14:31:19.607Z,99397.00
2018-08-23T14:33:57.009Z,99392.00
2018-08-23T14:36:37.546Z,99388.00
2018-08-23T14:39:15.404Z,99388.00
2018-08-23T14:41:53.841Z,99387.00
2018-08-23T14:44:31.620Z,99381.00
2018-08-23T14:47:14.378Z,99382.00
2018-08-23T14:49:50.312Z,99371.00
2018-08-23T14:52:27.000Z,99373.00
2018-08-23T14:55:04.780Z,99381.00
2018-08-23T14:57:41.092Z,99379.00
2018-08-23T15:00:18.312Z,99380.00
2018-08-23T15:02:56.254Z,99377.00
2018-08-23T15:05:34.113Z,99378.00
2018-08-23T15:08:11.135Z,99373.00
2018-08-23T15:10:48.358Z,99379.00
2018-08-23T15:13:25.590Z,99374.00
2018-08-23T15:16:02.653Z,99376.00
2018-08-23T15:18:39.841Z,99383.00
2018-08-23T15:21:18.256Z,99381.00
2018-08-23T15:23:55.376Z,99383.00
2018-08-23T15:26:32.455Z,99378.00
2018-08-23T15:29:13.567Z,99383.00
2018-08-23T15:31:51.196Z,99388.00
2018-08-23T15:34:28.740Z,99394.00
2018-08-23T15:37:07.401Z,99417.00
2018-08-23T15:39:44.664Z,99416.00
2018-08-23T15:42:22.217Z,99428.00
2018-08-23T15:44:59.900Z,99456.00
2018-08-23T15:47:38.071Z,99498.00
2018-08-23T15:50:16.190Z,99519.00
2018-08-23T15:52:55.730Z,99491.00
2018-08-23T15:55:35.293Z,99509.00
2018-08-23T15:58:12.014Z,99555.00
2018-08-23T16:00:50.005Z,99560.00
2018-08-23T16:03:27.273Z,99564.00
2018-08-23T16:06:06.905Z,99589.00
2018-08-23T16:08:49.263Z,99598.00
2018-08-23T16:11:26.700Z,99590.00
2018-08-23T16:14:04.214Z,99597.00
2018-08-23T16:16:48.371Z,99603.00
2018-08-23T16:19:31.921Z,99597.00
2018-08-23T16:22:12.379Z,99606.00
2018-08-23T16:24:53.242Z,99601.00
2018-08-23T16:27:34.253Z,99598.00
2018-08-23T16:30:14.866Z,99604.00
2018-08-23T16:32:56.377Z,99617.00
2018-08-23T16:35:37.018Z,99610.00
2018-08-23T16:38:17.433Z,99615.00
2018-08-23T16:40:58.576Z,99634.00
2018-08-23T16:43:39.667Z,99642.00
2018-08-23T16:46:20.972Z,99643.00
2018-08-23T16:49:01.417Z,99647.00
2018-08-23T16:51:42.697Z,99642.00
2018-08-23T16:54:23.365Z,99637.00
2018-08-23T16:57:04.111Z,99637.00
2018-08-23T16:59:44.552Z,99643.00
2018-08-23T17:02:25.486Z,99638.00
2018-08-23T17:05:06.537Z,99635.00
2018-08-23T17:07:47.169Z,99627.00
2018-08-23T17:10:27.510Z,99617.00
2018-08-23T17:13:07.944Z,99620.00
2018-08-23T17:15:54.056Z,99621.00
2018-08-23T17:18:34.616Z,99611.00
2018-08-23T17:21:15.468Z,99601.00
2018-08-23T17:23:56.001Z,99595.00
2018-08-23T17:26:36.713Z,99588.00
2018-08-23T17:29:17.192Z,99590.00
2018-08-23T17:31:58.344Z,99589.00
2018-08-23T17:34:38.706Z,99581.00
2018-08-23T17:37:19.567Z,99584.00
2018-08-23T17:40:00.521Z,99590.00
2018-08-23T17:42:43.962Z,99590.00
2018-08-23T17:45:24.623Z,99585.00
2018-08-23T17:48:05.332Z,99575.00
2018-08-23T17:50:46.018Z,99574.00
2018-08-23T17:53:26.940Z,99572.00
2018-08-23T17:56:07.337Z,99575.00
2018-08-23T17:58:48.714Z,99573.00
2018-08-23T18:01:30.024Z,99575.00
2018-08-23T18:04:11.118Z,99573.00
2018-08-23T18:06:51.549Z,99571.00
2018-08-23T18:09:32.248Z,99575.00
2018-08-23T18:12:13.199Z,99586.00
2018-08-23T18:14:53.797Z,99586.00
2018-08-23T18:17:34.257Z,99586.00
2018-08-23T18:20:15.301Z,99586.00
2018-08-23T18:22:56.028Z,99580.00
2018-08-23T18:25:37.111Z,99582.00
2018-08-23T18:28:19.326Z,99575.00
2018-08-23T18:31:00.198Z,99581.00
2018-08-23T18:33:41.336Z,99572.00
2018-08-23T18:36:21.904Z,99572.00
2018-08-23T18:39:03.278Z,99576.00
2018-08-23T18:41:44.137Z,99575.00
2018-08-23T18:44:24.981Z,99575.00
2018-08-23T18:47:05.845Z,99578.00
2018-08-23T18:49:46.651Z,99575.00
2018-08-23T18:52:27.168Z,99563.00
2018-08-23T18:55:07.697Z,99560.00
2018-08-23T18:57:48.512Z,99560.00
2018-08-23T19:00:29.325Z,99560.00
2018-08-23T19:03:10.140Z,99554.00
2018-08-23T19:05:51.220Z,99553.00
2018-08-23T19:08:32.030Z,99548.00
2018-08-23T19:11:12.952Z,99551.00
2018-08-23T19:13:53.486Z,99553.00
2018-08-23T19:16:39.721Z,99555.00
2018-08-23T19:19:20.337Z,99555.00
2018-08-23T19:22:01.000Z,99557.00
2018-08-23T19:24:41.900Z,99554.00
2018-08-23T19:27:22.643Z,99557.00
2018-08-23T19:30:03.094Z,99556.00
2018-08-23T19:32:43.925Z,99557.00
2018-08-23T19:35:24.672Z,99553.00
2018-08-23T19:38:05.877Z,99552.00
2018-08-23T19:40:46.326Z,99545.00
2018-08-23T19:43:27.043Z,99549.00
2018-08-23T19:46:13.432Z,99545.00
2018-08-23T19:48:59.438Z,99542.00
2018-08-23T19:51:40.082Z,99539.00
2018-08-23T19:54:20.643Z,99541.00
2018-08-23T19:57:01.412Z,99540.00
2018-08-23T19:59:42.250Z,99538.00
2018-08-23T20:02:22.992Z,99541.00
2018-08-23T20:05:03.808Z,99539.00
2018-08-23T20:07:45.355Z,99532.00
2018-08-23T20:10:25.961Z,99532.00
2018-08-23T20:13:06.887Z,99536.00
2018-08-23T20:15:47.792Z,99533.00
2018-08-23T20:18:28.329Z,99536.00
2018-08-23T20:21:08.997Z,99534.00
2018-08-23T20:23:49.579Z,99532.00
2018-08-23T20:26:31.207Z,99535.00
2018-08-23T20:29:11.719Z,99535.00
2018-08-23T20:31:52.682Z,99530.00
2018-08-23T20:34:33.624Z,99521.00
2018-08-23T20:37:14.411Z,99517.00
2018-08-23T20:39:55.579Z,99516.00
2018-08-23T20:42:36.130Z,99521.00
2018-08-23T20:45:18.000Z,99529.00
2018-08-23T20:47:59.137Z,99523.00
2018-08-23T20:50:40.259Z,99520.00
2018-08-23T20:53:21.990Z,99519.00
2018-08-23T20:56:03.148Z,99522.00
2018-08-23T20:58:44.258Z,99522.00
2018-08-23T21:01:25.290Z,99524.00
2018-08-23T21:04:06.368Z,99517.00
2018-08-23T21:06:47.168Z,99521.00
2018-08-23T21:09:27.956Z,99520.00
2018-08-23T21:12:08.468Z,99521.00
2018-08-23T21:14:49.487Z,99519.00
2018-08-23T21:17:30.818Z,99513.00
2018-08-23T21:20:11.875Z,99511.00
2018-08-23T21:22:52.798Z,99510.00
2018-08-23T21:25:33.570Z,99509.00
2018-08-23T21:28:14.300Z,99507.00
2018-08-23T21:30:55.903Z,99505.00
2018-08-23T21:33:36.516Z,99506.00
2018-08-23T21:36:17.076Z,99500.00
2018-08-23T21:38:57.532Z,99501.00
2018-08-23T21:41:38.235Z,99503.00
2018-08-23T21:44:18.866Z,99495.00
2018-08-23T21:46:59.512Z,99494.00
2018-08-23T21:49:40.072Z,99491.00
2018-08-23T21:52:20.867Z,99495.00
2018-08-23T21:55:01.922Z,99494.00
2018-08-23T21:57:42.920Z,99487.00
2018-08-23T22:00:23.711Z,99494.00
2018-08-23T22:03:04.713Z,99500.00
2018-08-23T22:05:45.871Z,99496.00
2018-08-23T22:08:26.494Z,99502.00
2018-08-23T22:11:07.388Z,99508.00
2018-08-23T22:13:48.169Z,99518.00
2018-08-23T22:16:29.358Z,99517.00
2018-08-23T22:19:09.740Z,99513.00
2018-08-23T22:21:50.580Z,99509.00
2018-08-23T22:24:31.614Z,99504.00
2018-08-23T22:27:12.142Z,99501.00
2018-08-23T22:29:53.070Z,99511.00
2018-08-23T22:32:33.500Z,99512.00
2018-08-23T22:35:14.437Z,99512.00
2018-08-23T22:37:55.016Z,99512.00
2018-08-23T22:40:37.386Z,99510.00
2018-08-23T22:43:17.920Z,99503.00
2018-08-23T22:45:59.565Z,99495.00
2018-08-23T22:48:40.135Z,99494.00
2018-08-23T22:51:20.692Z,99491.00
2018-08-23T22:54:01.420Z,99479.00
2018-08-23T22:56:42.247Z,99472.00
2018-08-23T22:59:22.915Z,99470.00
2018-08-23T23:02:04.114Z,99469.00
2018-08-23T23:04:44.965Z,99471.00
2018-08-23T23:07:25.935Z,99475.00
2018-08-23T23:10:07.398Z,99462.00
2018-08-23T23:12:48.382Z,99461.00
2018-08-23T23:15:28.817Z,99460.00
2018-08-23T23:18:09.513Z,99463.00
2018-08-23T23:20:50.074Z,99461.00
2018-08-23T23:23:30.841Z,99460.00
2018-08-23T23:26:11.384Z,99457.00
2018-08-23T23:28:51.949Z,99457.00
2018-08-23T23:31:32.609Z,99462.00
2018-08-23T23:34:13.200Z,99468.00
2018-08-23T23:36:53.976Z,99473.00
2018-08-23T23:39:34.858Z,99468.00
2018-08-23T23:42:15.605Z,99462.00
2018-08-23T23:44:56.969Z,99459.00
2018-08-23T23:47:37.928Z,99458.00
2018-08-23T23:50:18.579Z,99460.00
2018-08-23T23:52:59.086Z,99459.00
2018-08-23T23:55:39.639Z,99458.00
2018-08-23T23:58:21.302Z,99460.00
